Kirtland, Ohio
Current Conditions -  °F | °C
As of 9:00 PM on Thursday 20 Nov 2014 (Local Time) from KCGF Reporting Station
Moderate Snow Moderate Snow  
Wind Chill: 12°   Ceiling: 900
Heat Index: 25°   Visibility: 0.75mi
Dew Point: 21°   Wind: 16mph
Humidity: 86%   Direction: 280°W
Pressure: 30.08"   Gusts: 23mph
Location:  41.5761°N, 81.1919°W
Report Text: KCGF 210200Z 28014G20KT 3/4SM SN BKN009 OVC030 M04/M06 A3008
Loading
Personal Weather Stations






























Interactive Weather Map New forecast layout! Learn more

10-Day Weather Forecast

Advertisements
Track Severe Weather on mobile